Weather at New Bedford Regional Airport

Public forecast

Using degrees Fahrenheit for public forecast. Weather courtesy of forecast.io.

Current aviation weather report (METAR) for New Bedford Regional Airport

Retrieved 2020/09/27 04:40 UTC (0 seconds ago):

KEWB 270440Z AUTO 00000KT 2 1/2SM BR BKN005 15/14 A3006 RMK AO2 T01500139

Closest aviation forecast (TAF) to New Bedford Regional Airport

Closest forecast is Cape Cod Coast Guard Air Station, 19.6 nm (36.2 km) E. Retrieved 2020-09-27 00:42 UTC (4 hours ago):

TAF KFMH 262339Z 2700/2724 17004KT 5SM BR BKN015 FM270200 17004KT 3SM BR BKN003 FM270600 19004KT 2SM BR OVC003 FM271400 18009KT P6SM BKN025